createdAt,value
2018-09-09T00:00:02.058Z,99.90
2018-09-09T00:02:30.212Z,99.90
2018-09-09T00:04:58.436Z,99.90
2018-09-09T00:07:26.560Z,99.90
2018-09-09T00:09:54.795Z,99.90
2018-09-09T00:12:23.009Z,99.90
2018-09-09T00:14:51.243Z,99.90
2018-09-09T00:17:19.408Z,99.90
2018-09-09T00:19:47.599Z,99.90
2018-09-09T00:22:15.820Z,99.90
2018-09-09T00:24:43.981Z,99.90
2018-09-09T00:27:12.248Z,99.90
2018-09-09T00:29:40.435Z,99.90
2018-09-09T00:32:08.613Z,99.90
2018-09-09T00:34:36.791Z,99.90
2018-09-09T00:37:05.036Z,99.90
2018-09-09T00:39:33.247Z,99.90
2018-09-09T00:42:01.403Z,99.90
2018-09-09T00:44:29.612Z,99.90
2018-09-09T00:46:57.751Z,99.90
2018-09-09T00:49:31.308Z,99.90
2018-09-09T00:52:04.761Z,99.90
2018-09-09T00:54:32.925Z,99.90
2018-09-09T00:57:01.100Z,99.90
2018-09-09T00:59:29.275Z,99.90
2018-09-09T01:01:57.449Z,99.90
2018-09-09T01:04:25.584Z,99.90
2018-09-09T01:06:53.776Z,99.90
2018-09-09T01:09:26.135Z,99.90
2018-09-09T01:11:54.263Z,99.90
2018-09-09T01:14:22.419Z,99.90
2018-09-09T01:16:50.595Z,99.90
2018-09-09T01:19:18.880Z,99.90
2018-09-09T01:21:47.018Z,99.90
2018-09-09T01:24:15.200Z,99.90
2018-09-09T01:26:43.511Z,99.90
2018-09-09T01:29:11.663Z,99.90
2018-09-09T01:31:39.844Z,99.90
2018-09-09T01:34:08.050Z,99.90
2018-09-09T01:36:36.236Z,99.90
2018-09-09T01:39:05.686Z,99.90
2018-09-09T01:41:33.977Z,99.90
2018-09-09T01:44:02.136Z,99.90
2018-09-09T01:46:30.443Z,99.90
2018-09-09T01:48:58.672Z,99.90
2018-09-09T01:51:26.891Z,99.90
2018-09-09T01:53:55.044Z,99.90
2018-09-09T01:56:23.268Z,99.90
2018-09-09T01:58:51.476Z,99.90
2018-09-09T02:01:20.545Z,99.90
2018-09-09T02:03:48.740Z,99.90
2018-09-09T02:06:16.872Z,99.90
2018-09-09T02:08:45.095Z,99.90
2018-09-09T02:11:13.392Z,99.90
2018-09-09T02:13:41.548Z,99.90
2018-09-09T02:16:09.734Z,99.90
2018-09-09T02:18:37.921Z,99.90
2018-09-09T02:21:06.053Z,99.90
2018-09-09T02:23:34.232Z,99.90
2018-09-09T02:26:02.596Z,99.90
2018-09-09T02:28:30.878Z,99.90
2018-09-09T02:30:59.051Z,99.90
2018-09-09T02:33:27.196Z,99.90
2018-09-09T02:35:55.328Z,99.90
2018-09-09T02:38:23.564Z,99.90
2018-09-09T02:40:51.704Z,99.90
2018-09-09T02:43:19.897Z,99.90
2018-09-09T02:45:48.046Z,99.90
2018-09-09T02:48:16.228Z,99.90
2018-09-09T02:50:44.397Z,99.90
2018-09-09T02:53:12.557Z,99.90
2018-09-09T02:55:45.143Z,99.90
2018-09-09T02:58:14.647Z,99.90
2018-09-09T03:00:42.832Z,99.90
2018-09-09T03:03:11.103Z,99.90
2018-09-09T03:05:39.435Z,99.90
2018-09-09T03:08:07.919Z,99.90
2018-09-09T03:10:36.258Z,99.90
2018-09-09T03:13:04.455Z,99.90
2018-09-09T03:15:32.636Z,99.90
2018-09-09T03:18:00.784Z,99.90
2018-09-09T03:20:28.941Z,99.90
2018-09-09T03:22:57.200Z,99.90
2018-09-09T03:25:25.353Z,99.90
2018-09-09T03:27:53.504Z,99.90
2018-09-09T03:30:21.692Z,99.90
2018-09-09T03:32:49.857Z,99.90
2018-09-09T03:35:18.054Z,99.90
2018-09-09T03:37:46.207Z,99.90
2018-09-09T03:40:14.354Z,99.90
2018-09-09T03:42:42.504Z,99.90
2018-09-09T03:45:10.669Z,99.90
2018-09-09T03:47:38.802Z,99.90
2018-09-09T03:50:06.920Z,99.90
2018-09-09T03:52:35.094Z,99.90
2018-09-09T03:55:03.239Z,99.90
2018-09-09T03:57:31.373Z,99.90
2018-09-09T03:59:59.538Z,99.90
2018-09-09T04:02:27.685Z,99.90
2018-09-09T04:04:55.861Z,99.90
2018-09-09T04:07:24.025Z,99.90
2018-09-09T04:09:52.152Z,99.90
2018-09-09T04:12:20.291Z,99.90
2018-09-09T04:14:50.037Z,99.90
2018-09-09T04:17:18.198Z,99.90
2018-09-09T04:19:46.391Z,99.90
2018-09-09T04:22:14.549Z,99.90
2018-09-09T04:24:42.789Z,99.90
2018-09-09T04:27:10.976Z,99.90
2018-09-09T04:29:39.104Z,99.90
2018-09-09T04:32:07.233Z,99.90
2018-09-09T04:34:35.360Z,99.90
2018-09-09T04:37:03.566Z,99.90
2018-09-09T04:39:31.792Z,99.90
2018-09-09T04:41:59.961Z,99.90
2018-09-09T04:44:28.131Z,99.90
2018-09-09T04:46:56.309Z,99.90
2018-09-09T04:49:24.485Z,99.90
2018-09-09T04:51:52.679Z,99.90
2018-09-09T04:54:20.875Z,99.90
2018-09-09T04:56:49.062Z,99.90
2018-09-09T04:59:17.244Z,99.90
2018-09-09T05:01:45.388Z,99.90
2018-09-09T05:04:13.574Z,99.90
2018-09-09T05:06:41.772Z,99.90
2018-09-09T05:09:10.016Z,99.90
2018-09-09T05:11:38.231Z,99.90
2018-09-09T05:14:06.413Z,99.90
2018-09-09T05:16:34.586Z,99.90
2018-09-09T05:19:03.484Z,99.90
2018-09-09T05:21:31.720Z,99.90
2018-09-09T05:23:59.935Z,99.90
2018-09-09T05:26:28.449Z,99.90
2018-09-09T05:28:56.593Z,99.90
2018-09-09T05:31:24.846Z,99.90
2018-09-09T05:33:53.038Z,99.90
2018-09-09T05:36:21.206Z,99.90
2018-09-09T05:38:49.399Z,99.90
2018-09-09T05:41:17.612Z,99.90
2018-09-09T05:43:45.775Z,99.90
2018-09-09T05:46:13.973Z,99.90
2018-09-09T05:48:42.166Z,99.90
2018-09-09T05:51:10.336Z,99.90
2018-09-09T05:53:38.516Z,99.90
2018-09-09T05:56:06.786Z,99.90
2018-09-09T05:58:34.925Z,99.90
2018-09-09T06:01:03.199Z,99.90
2018-09-09T06:03:31.402Z,99.90
2018-09-09T06:05:59.619Z,99.90
2018-09-09T06:08:27.818Z,99.90
2018-09-09T06:10:56.132Z,99.90
2018-09-09T06:13:25.644Z,99.90
2018-09-09T06:15:53.867Z,99.90
2018-09-09T06:18:22.011Z,99.90
2018-09-09T06:20:50.263Z,99.90
2018-09-09T06:23:18.451Z,99.90
2018-09-09T06:25:46.666Z,99.90
2018-09-09T06:28:15.023Z,99.90
2018-09-09T06:30:43.230Z,99.90
2018-09-09T06:33:11.404Z,99.90
2018-09-09T06:35:39.564Z,99.90
2018-09-09T06:38:08.040Z,99.90
2018-09-09T06:40:36.240Z,99.90
2018-09-09T06:43:04.399Z,99.90
2018-09-09T06:45:32.542Z,99.90
2018-09-09T06:48:00.712Z,99.90
2018-09-09T06:50:28.884Z,99.90
2018-09-09T06:52:57.027Z,99.90
2018-09-09T06:55:25.222Z,99.90
2018-09-09T06:57:53.352Z,99.90
2018-09-09T07:00:21.809Z,99.90
2018-09-09T07:02:50.061Z,99.90
2018-09-09T07:05:18.291Z,99.90
2018-09-09T07:07:46.497Z,99.90
2018-09-09T07:10:14.668Z,99.90
2018-09-09T07:12:42.941Z,99.90
2018-09-09T07:15:11.272Z,99.90
2018-09-09T07:17:39.544Z,99.90
2018-09-09T07:20:07.693Z,99.90
2018-09-09T07:22:36.687Z,99.90
2018-09-09T07:25:05.088Z,99.90
2018-09-09T07:27:33.655Z,99.90
2018-09-09T07:30:01.796Z,99.90
2018-09-09T07:32:30.039Z,99.90
2018-09-09T07:34:58.238Z,99.90
2018-09-09T07:37:26.432Z,99.90
2018-09-09T07:39:54.764Z,99.90
2018-09-09T07:42:22.978Z,99.90
2018-09-09T07:44:51.191Z,99.90
2018-09-09T07:47:19.334Z,99.90
2018-09-09T07:49:47.589Z,99.90
2018-09-09T07:52:15.868Z,99.90
2018-09-09T07:54:44.112Z,99.90
2018-09-09T07:57:12.333Z,99.90
2018-09-09T07:59:40.573Z,99.90
2018-09-09T08:02:08.742Z,99.90
2018-09-09T08:04:37.040Z,99.90
2018-09-09T08:07:05.422Z,99.90
2018-09-09T08:09:33.600Z,99.90
2018-09-09T08:12:02.000Z,99.90
2018-09-09T08:14:30.343Z,99.90
2018-09-09T08:16:58.597Z,99.90
2018-09-09T08:19:26.841Z,99.90
2018-09-09T08:21:55.015Z,99.90
2018-09-09T08:24:23.156Z,99.90
2018-09-09T08:26:51.450Z,99.90
2018-09-09T08:29:19.728Z,99.90
2018-09-09T08:31:48.009Z,99.90
2018-09-09T08:34:16.285Z,99.90
2018-09-09T08:36:44.847Z,99.90
2018-09-09T08:39:13.353Z,99.90
2018-09-09T08:41:42.153Z,99.90
2018-09-09T08:44:12.266Z,99.90
2018-09-09T08:46:40.602Z,99.90
2018-09-09T08:49:08.773Z,99.90
2018-09-09T08:51:37.498Z,99.90
2018-09-09T08:54:05.792Z,99.90
2018-09-09T08:56:33.980Z,99.90
2018-09-09T08:59:02.200Z,99.90
2018-09-09T09:01:30.533Z,99.90
2018-09-09T09:03:58.880Z,99.90
2018-09-09T09:06:31.808Z,99.90
2018-09-09T09:09:00.293Z,99.90
2018-09-09T09:11:28.666Z,99.90
2018-09-09T09:13:57.023Z,99.90
2018-09-09T09:16:25.328Z,99.90
2018-09-09T09:18:54.436Z,99.80
2018-09-09T09:21:24.242Z,99.90
2018-09-09T09:23:52.729Z,99.90
2018-09-09T09:26:20.996Z,99.90
2018-09-09T09:28:49.502Z,99.90
2018-09-09T09:31:18.701Z,99.90
2018-09-09T09:33:47.129Z,99.90
2018-09-09T09:36:15.490Z,99.80
2018-09-09T09:38:43.748Z,99.80
2018-09-09T09:41:12.141Z,99.50
2018-09-09T09:43:40.363Z,99.20
2018-09-09T09:46:08.770Z,99.80
2018-09-09T09:48:36.942Z,99.20
2018-09-09T09:51:05.131Z,98.60
2018-09-09T09:53:33.801Z,99.20
2018-09-09T09:56:02.406Z,99.20
2018-09-09T09:58:30.641Z,98.80
2018-09-09T10:00:58.977Z,98.20
2018-09-09T10:03:27.418Z,98.70
2018-09-09T10:05:55.635Z,98.70
2018-09-09T10:08:24.686Z,98.30
2018-09-09T10:10:53.043Z,97.90
2018-09-09T10:13:21.352Z,98.10
2018-09-09T10:15:50.331Z,97.60
2018-09-09T10:18:18.607Z,97.50
2018-09-09T10:20:46.957Z,97.10
2018-09-09T10:23:15.225Z,97.00
2018-09-09T10:25:43.437Z,97.60
2018-09-09T10:28:11.610Z,97.80
2018-09-09T10:30:39.812Z,97.70
2018-09-09T10:33:08.093Z,96.70
2018-09-09T10:35:36.420Z,97.50
2018-09-09T10:38:04.701Z,97.30
2018-09-09T10:40:32.953Z,97.30
2018-09-09T10:43:01.166Z,97.40
2018-09-09T10:45:29.480Z,97.70
2018-09-09T10:47:57.806Z,97.80
2018-09-09T10:50:26.128Z,97.40
2018-09-09T10:52:54.275Z,97.70
2018-09-09T10:55:23.211Z,97.40
2018-09-09T10:57:53.617Z,97.50
2018-09-09T11:00:21.999Z,97.10
2018-09-09T11:02:50.301Z,97.10
2018-09-09T11:05:18.513Z,97.10
2018-09-09T11:07:46.789Z,96.80
2018-09-09T11:10:14.989Z,96.70
2018-09-09T11:12:43.448Z,97.00
2018-09-09T11:15:11.653Z,96.60
2018-09-09T11:17:39.853Z,96.40
2018-09-09T11:20:08.045Z,96.20
2018-09-09T11:22:40.604Z,96.40
2018-09-09T11:25:08.880Z,95.60
2018-09-09T11:27:37.077Z,96.00
2018-09-09T11:30:05.424Z,95.80
2018-09-09T11:32:33.648Z,95.90
2018-09-09T11:35:01.993Z,95.30
2018-09-09T11:37:30.251Z,95.60
2018-09-09T11:39:58.446Z,96.40
2018-09-09T11:42:26.753Z,96.30
2018-09-09T11:44:54.904Z,96.20
2018-09-09T11:47:23.148Z,96.00
2018-09-09T11:49:51.438Z,95.60
2018-09-09T11:52:19.766Z,95.50
2018-09-09T11:54:47.947Z,95.20
2018-09-09T11:57:16.188Z,96.10
2018-09-09T11:59:44.419Z,95.80
2018-09-09T12:02:12.692Z,95.70
2018-09-09T12:04:40.890Z,95.30
2018-09-09T12:07:09.180Z,95.10
2018-09-09T12:09:37.558Z,95.60
2018-09-09T12:12:05.800Z,95.50
2018-09-09T12:14:34.006Z,95.40
2018-09-09T12:17:02.638Z,95.90
2018-09-09T12:19:30.864Z,95.20
2018-09-09T12:21:59.158Z,95.90
2018-09-09T12:24:27.387Z,95.60
2018-09-09T12:26:55.816Z,95.30
2018-09-09T12:29:24.692Z,95.50
2018-09-09T12:31:53.013Z,94.90
2018-09-09T12:34:21.483Z,94.70
2018-09-09T12:36:49.668Z,95.50
2018-09-09T12:39:17.881Z,95.20
2018-09-09T12:41:46.218Z,95.80
2018-09-09T12:44:19.794Z,95.40
2018-09-09T12:46:53.396Z,94.30
2018-09-09T12:49:21.636Z,95.30
2018-09-09T12:51:50.015Z,95.10
2018-09-09T12:54:18.304Z,94.80
2018-09-09T12:56:46.983Z,94.40
2018-09-09T12:59:15.342Z,94.40
2018-09-09T13:01:43.647Z,95.40
2018-09-09T13:04:12.577Z,95.40
2018-09-09T13:06:40.807Z,95.60
2018-09-09T13:09:09.500Z,95.00
2018-09-09T13:11:37.776Z,95.40
2018-09-09T13:14:06.242Z,94.90
2018-09-09T13:16:34.399Z,95.00
2018-09-09T13:19:02.823Z,94.40
2018-09-09T13:21:31.123Z,93.70
2018-09-09T13:23:59.315Z,94.00
2018-09-09T13:26:27.501Z,94.30
2018-09-09T13:28:55.695Z,93.40
2018-09-09T13:31:23.937Z,94.70
2018-09-09T13:33:52.186Z,94.40
2018-09-09T13:36:20.329Z,93.60
2018-09-09T13:38:48.506Z,93.40
2018-09-09T13:41:16.712Z,94.00
2018-09-09T13:43:44.946Z,94.40
2018-09-09T13:46:13.166Z,94.00
2018-09-09T13:48:41.472Z,93.30
2018-09-09T13:51:09.717Z,93.00
2018-09-09T13:53:38.009Z,93.50
2018-09-09T13:56:06.348Z,93.70
2018-09-09T13:58:34.556Z,94.00
2018-09-09T14:01:02.798Z,95.10
2018-09-09T14:03:31.016Z,94.20
2018-09-09T14:05:59.201Z,94.10
2018-09-09T14:08:27.434Z,93.30
2018-09-09T14:10:55.637Z,93.80
2018-09-09T14:13:23.847Z,93.60
2018-09-09T14:15:52.143Z,93.90
2018-09-09T14:18:20.367Z,93.50
2018-09-09T14:20:48.612Z,94.10
2018-09-09T14:23:16.917Z,93.60
2018-09-09T14:25:45.236Z,92.50
2018-09-09T14:28:13.493Z,93.50
2018-09-09T14:30:41.794Z,93.20
2018-09-09T14:33:10.020Z,92.30
2018-09-09T14:35:38.160Z,92.40
2018-09-09T14:38:06.416Z,93.10
2018-09-09T14:40:34.570Z,93.20
2018-09-09T14:43:02.804Z,93.60
2018-09-09T14:45:31.041Z,94.00
2018-09-09T14:47:59.205Z,94.10
2018-09-09T14:50:27.585Z,93.30
2018-09-09T14:52:55.838Z,93.60
2018-09-09T14:55:23.949Z,92.70
2018-09-09T14:57:52.151Z,92.80
2018-09-09T15:00:20.329Z,94.00
2018-09-09T15:02:48.544Z,93.80
2018-09-09T15:05:16.838Z,93.30
2018-09-09T15:07:45.078Z,92.60
2018-09-09T15:10:13.307Z,92.90
2018-09-09T15:12:41.502Z,93.00
2018-09-09T15:15:09.670Z,93.60
2018-09-09T15:17:37.866Z,94.00
2018-09-09T15:20:06.077Z,93.30
2018-09-09T15:22:34.356Z,93.70
2018-09-09T15:25:02.573Z,93.40
2018-09-09T15:27:30.797Z,93.50
2018-09-09T15:29:58.972Z,93.80
2018-09-09T15:32:28.341Z,93.90
2018-09-09T15:34:56.567Z,93.70
2018-09-09T15:37:24.833Z,93.60
2018-09-09T15:39:53.887Z,93.50
2018-09-09T15:42:22.112Z,93.80
2018-09-09T15:44:50.413Z,93.40
2018-09-09T15:47:18.588Z,92.80
2018-09-09T15:49:46.817Z,92.90
2018-09-09T15:52:15.057Z,91.90
2018-09-09T15:54:44.137Z,92.30
2018-09-09T15:57:12.396Z,91.70
2018-09-09T15:59:40.640Z,91.80
2018-09-09T16:02:08.993Z,91.10
2018-09-09T16:04:37.353Z,90.80
2018-09-09T16:07:05.888Z,90.70
2018-09-09T16:09:34.172Z,90.60
2018-09-09T16:12:02.382Z,90.40
2018-09-09T16:14:30.620Z,90.90
2018-09-09T16:16:58.874Z,90.80
2018-09-09T16:19:27.096Z,91.00
2018-09-09T16:21:55.313Z,91.10
2018-09-09T16:24:23.636Z,91.00
2018-09-09T16:26:51.809Z,91.00
2018-09-09T16:29:20.021Z,91.20
2018-09-09T16:31:48.371Z,91.30
2018-09-09T16:34:16.655Z,90.80
2018-09-09T16:36:44.879Z,91.00
2018-09-09T16:39:13.185Z,91.20
2018-09-09T16:41:41.375Z,91.50
2018-09-09T16:44:09.620Z,91.40
2018-09-09T16:46:37.948Z,91.30
2018-09-09T16:49:06.190Z,91.20
2018-09-09T16:51:34.506Z,91.30
2018-09-09T16:54:03.197Z,91.50
2018-09-09T16:56:31.593Z,91.60
2018-09-09T16:59:00.051Z,91.60
2018-09-09T17:01:28.391Z,91.60
2018-09-09T17:03:56.648Z,91.80
2018-09-09T17:06:24.973Z,91.90
2018-09-09T17:08:53.548Z,92.00
2018-09-09T17:11:21.757Z,92.30
2018-09-09T17:13:50.065Z,92.40
2018-09-09T17:16:18.262Z,92.70
2018-09-09T17:18:46.646Z,92.60
2018-09-09T17:21:14.972Z,92.70
2018-09-09T17:23:44.460Z,92.40
2018-09-09T17:26:12.757Z,92.40
2018-09-09T17:28:41.144Z,92.30
2018-09-09T17:31:09.769Z,92.40
2018-09-09T17:33:38.036Z,92.80
2018-09-09T17:36:06.334Z,92.80
2018-09-09T17:38:34.896Z,93.00
2018-09-09T17:41:03.123Z,93.10
2018-09-09T17:43:31.368Z,93.30
2018-09-09T17:45:59.657Z,93.30
2018-09-09T17:48:27.908Z,93.40
2018-09-09T17:50:56.109Z,93.60
2018-09-09T17:53:24.323Z,93.90
2018-09-09T17:55:52.581Z,94.10
2018-09-09T17:58:24.542Z,94.20
2018-09-09T18:00:52.829Z,94.40
2018-09-09T18:03:21.142Z,94.50
2018-09-09T18:05:49.364Z,95.10
2018-09-09T18:08:18.015Z,95.10
2018-09-09T18:10:46.667Z,95.20
2018-09-09T18:13:15.025Z,95.30
2018-09-09T18:15:43.385Z,95.40
2018-09-09T18:18:12.365Z,95.70
2018-09-09T18:20:41.755Z,95.80
2018-09-09T18:23:10.263Z,96.20
2018-09-09T18:25:38.851Z,96.60
2018-09-09T18:28:07.237Z,96.50
2018-09-09T18:30:35.833Z,97.00
2018-09-09T18:33:04.133Z,97.10
2018-09-09T18:35:32.364Z,97.30
2018-09-09T18:38:00.759Z,97.40
2018-09-09T18:40:29.133Z,97.50
2018-09-09T18:42:57.561Z,97.30
2018-09-09T18:45:26.065Z,97.30
2018-09-09T18:47:54.434Z,97.30
2018-09-09T18:50:22.805Z,97.30
2018-09-09T18:52:51.241Z,97.50
2018-09-09T18:55:19.489Z,98.10
2018-09-09T18:57:48.165Z,98.10
2018-09-09T19:00:16.669Z,97.90
2018-09-09T19:02:44.968Z,98.00
2018-09-09T19:05:13.904Z,98.00
2018-09-09T19:07:43.756Z,98.20
2018-09-09T19:10:12.334Z,98.20
2018-09-09T19:12:41.435Z,98.40
2018-09-09T19:15:09.887Z,98.40
2018-09-09T19:17:38.128Z,98.60
2018-09-09T19:20:06.666Z,98.70
2018-09-09T19:22:35.558Z,98.80
2018-09-09T19:25:03.856Z,99.20
2018-09-09T19:27:34.518Z,99.30
2018-09-09T19:30:03.266Z,99.60
2018-09-09T19:32:31.557Z,99.80
2018-09-09T19:34:59.848Z,99.90
2018-09-09T19:37:28.332Z,99.90
2018-09-09T19:39:56.669Z,99.90
2018-09-09T19:42:25.214Z,99.90
2018-09-09T19:44:53.639Z,99.90
2018-09-09T19:47:21.851Z,99.90
2018-09-09T19:49:50.385Z,99.90
2018-09-09T19:52:18.929Z,99.90
2018-09-09T19:54:47.191Z,99.90
2018-09-09T19:57:15.626Z,99.90
2018-09-09T19:59:43.928Z,99.90
2018-09-09T20:02:12.354Z,99.90
2018-09-09T20:04:40.616Z,99.90
2018-09-09T20:07:08.938Z,99.90
2018-09-09T20:09:38.263Z,99.90
2018-09-09T20:12:06.713Z,99.90
2018-09-09T20:14:34.974Z,99.90
2018-09-09T20:17:03.220Z,99.90
2018-09-09T20:19:31.514Z,99.90
2018-09-09T20:21:59.824Z,99.90
2018-09-09T20:24:28.152Z,99.90
2018-09-09T20:26:56.675Z,99.90
2018-09-09T20:29:25.190Z,99.90
2018-09-09T20:31:53.913Z,99.90
2018-09-09T20:34:22.136Z,99.90
2018-09-09T20:36:50.460Z,99.90
2018-09-09T20:39:18.724Z,99.90
2018-09-09T20:41:47.124Z,99.90
2018-09-09T20:44:15.432Z,99.90
2018-09-09T20:46:43.688Z,99.90
2018-09-09T20:49:11.993Z,99.90
2018-09-09T20:51:40.281Z,99.90
2018-09-09T20:54:08.752Z,99.90
2018-09-09T20:56:37.191Z,99.90
2018-09-09T20:59:05.790Z,99.90
2018-09-09T21:01:33.991Z,99.90
2018-09-09T21:04:03.145Z,99.90
2018-09-09T21:06:31.565Z,99.90
2018-09-09T21:09:00.202Z,99.90
2018-09-09T21:11:29.181Z,99.90
2018-09-09T21:13:57.639Z,99.90
2018-09-09T21:16:26.497Z,99.90
2018-09-09T21:18:54.948Z,99.90
2018-09-09T21:21:23.499Z,99.90
2018-09-09T21:23:52.050Z,99.90
2018-09-09T21:26:20.808Z,99.90
2018-09-09T21:28:49.794Z,99.90
2018-09-09T21:31:18.153Z,99.90
2018-09-09T21:33:46.764Z,99.90
2018-09-09T21:36:15.159Z,99.90
2018-09-09T21:38:43.695Z,99.90
2018-09-09T21:41:12.351Z,99.90
2018-09-09T21:43:40.764Z,99.90
2018-09-09T21:46:09.348Z,99.90
2018-09-09T21:48:37.624Z,99.90
2018-09-09T21:51:05.956Z,99.90
2018-09-09T21:53:34.227Z,99.90
2018-09-09T21:56:02.648Z,99.90
2018-09-09T21:58:31.036Z,99.90
2018-09-09T22:01:04.795Z,99.90
2018-09-09T22:03:33.183Z,99.90
2018-09-09T22:06:01.780Z,99.90
2018-09-09T22:08:30.151Z,99.90
2018-09-09T22:10:58.508Z,99.90
2018-09-09T22:13:27.153Z,99.90
2018-09-09T22:15:55.612Z,99.90
2018-09-09T22:18:24.217Z,99.90
2018-09-09T22:20:52.523Z,99.90
2018-09-09T22:23:21.017Z,99.90
2018-09-09T22:25:49.449Z,99.90
2018-09-09T22:28:17.765Z,99.90
2018-09-09T22:30:45.988Z,99.90
2018-09-09T22:33:14.322Z,99.90
2018-09-09T22:35:42.633Z,99.90
2018-09-09T22:38:11.125Z,99.90
2018-09-09T22:40:39.360Z,99.90
2018-09-09T22:43:07.711Z,99.90
2018-09-09T22:45:36.044Z,99.90
2018-09-09T22:48:04.506Z,99.90
2018-09-09T22:50:33.178Z,99.90
2018-09-09T22:53:01.516Z,99.90
2018-09-09T22:55:30.011Z,99.90
2018-09-09T22:57:58.259Z,99.90
2018-09-09T23:00:26.737Z,99.90
2018-09-09T23:02:55.083Z,99.90
2018-09-09T23:05:23.649Z,99.90
2018-09-09T23:07:52.047Z,99.90
2018-09-09T23:10:20.372Z,99.90
2018-09-09T23:12:48.612Z,99.90
2018-09-09T23:15:18.605Z,99.90
2018-09-09T23:17:46.892Z,99.90
2018-09-09T23:20:15.415Z,99.90
2018-09-09T23:22:43.896Z,99.90
2018-09-09T23:25:12.171Z,99.90
2018-09-09T23:27:40.455Z,99.90
2018-09-09T23:30:09.281Z,99.90
2018-09-09T23:32:37.872Z,99.90
2018-09-09T23:35:06.424Z,99.90
2018-09-09T23:37:34.796Z,99.90
2018-09-09T23:40:03.271Z,99.90
2018-09-09T23:42:31.833Z,99.90
2018-09-09T23:45:00.201Z,99.90
2018-09-09T23:47:28.755Z,99.90
2018-09-09T23:49:57.109Z,99.90
2018-09-09T23:52:25.437Z,99.90
2018-09-09T23:54:53.788Z,99.90
2018-09-09T23:57:22.023Z,99.90
2018-09-09T23:59:50.528Z,99.90
